Time;durP1;ratioP1;P1;durP2;ratioP2;P2;SDS_P1;SDS_P2;PMS_P1;PMS_P2;Temp;Humidity;BMP_temperature;BMP_pressure;BME280_temperature;BME280_humidity;BME280_pressure;Samples;Min_cycle;Max_cycle;Signal;HPM_P1;HPM_P2
2022/04/06 00:00:52;;;;;;;;;;;;;;;;;;2098685;28;19924;-53
2022/04/06 00:01:54;;;;;;;;;;;;;;;;;;2098568;28;19924;-44
2022/04/06 00:02:55;;;;;;;;;;;;;;;;;;2099821;28;19925;-44
2022/04/06 00:03:56;;;;;;;;;;;;;;;;;;2107147;28;19928;-51
2022/04/06 00:04:57;;;;;;;;;;;;;;;;;;2106907;28;19924;-54
2022/04/06 00:05:57;;;;;;;;;;;;;;;;;;2106845;28;19924;-50
2022/04/06 00:06:59;;;;;;;;;;;;;;;;;;2106816;28;20266;-50
2022/04/06 00:08:00;;;;;;;;;;;;;;;;;;2106990;28;20019;-54
2022/04/06 00:09:01;;;;;;;;;;;;;;;;;;2106947;28;19924;-44
2022/04/06 00:10:02;;;;;;;;;;;;;;;;;;2106858;28;19928;-44
2022/04/06 00:11:03;;;;;;;;;;;;;;;;;;2106837;28;19977;-44
2022/04/06 00:12:04;;;;;;;;;;;;;;;;;;2106676;28;20418;-44
2022/04/06 00:13:06;;;;;;;;;;;;;;;;;;2106757;28;19924;-44
2022/04/06 00:14:07;;;;;;;;;;;;;;;;;;2105104;28;19924;-45
2022/04/06 00:15:08;;;;;;;;;;;;;;;;;;2098370;28;19925;-45
2022/04/06 00:16:08;;;;;;;;;;;;;;;;;;2098346;28;20377;-45
2022/04/06 00:17:12;;;;;;;;;;;;;;;;;;2098511;28;19939;-45
2022/04/06 00:18:13;;;;;;;;;;;;;;;;;;2098438;28;19924;-45
2022/04/06 00:19:14;;;;;;;;;;;;;;;;;;2098462;28;20238;-45
2022/04/06 00:20:16;;;;;;;;;;;;;;;;;;2098414;28;19935;-44
2022/04/06 00:21:17;;;;;;;;;;;;;;;;;;2098342;28;19931;-45
2022/04/06 00:22:18;;;;;;;;;;;;;;;;;;2098422;28;19924;-44
2022/04/06 00:23:19;;;;;;;;;;;;;;;;;;2098832;28;19932;-45
2022/04/06 00:24:20;;;;;;;;;;;;;;;;;;2098386;28;20289;-45
2022/04/06 00:25:21;;;;;;;;;;;;;;;;;;2098535;28;19924;-44
2022/04/06 00:26:22;;;;;;;;;;;;;;;;;;2098348;28;19928;-45
2022/04/06 00:27:23;;;;;;;;;;;;;;;;;;2098493;28;20274;-44
2022/04/06 00:28:24;;;;;;;;;;;;;;;;;;2098385;28;19925;-45
2022/04/06 00:29:25;;;;;;;;;;;;;;;;;;2098700;28;19925;-44
2022/04/06 00:30:26;;;;;;;;;;;;;;;;;;2098299;28;19924;-44
2022/04/06 00:31:27;;;;;;;;;;;;;;;;;;2098225;28;20389;-45
2022/04/06 00:32:28;;;;;;;;;;;;;;;;;;2098378;28;19936;-44
2022/04/06 00:33:29;;;;;;;;;;;;;;;;;;2098286;28;20015;-44
2022/04/06 00:35:50;;;;;;;;;;;;;;;;;;2098187;28;19925;-53
2022/04/06 00:36:54;;;;;;;;;;;;;;;;;;2098301;28;19925;-50
2022/04/06 00:37:55;;;;;;;;;;;;;;;;;;2098583;28;20006;-53
2022/04/06 00:38:56;;;;;;;;;;;;;;;;;;2098260;28;20182;-50
2022/04/06 00:39:57;;;;;;;;;;;;;;;;;;2098130;28;19925;-51
2022/04/06 00:40:58;;;;;;;;;;;;;;;;;;2098402;28;19924;-50
2022/04/06 00:41:59;;;;;;;;;;;;;;;;;;2098216;28;19932;-52
2022/04/06 00:43:00;;;;;;;;;;;;;;;;;;2098187;28;19924;-50
2022/04/06 00:44:01;;;;;;;;;;;;;;;;;;2098609;28;19963;-46
2022/04/06 00:45:02;;;;;;;;;;;;;;;;;;2098447;28;20343;-46
2022/04/06 00:46:03;;;;;;;;;;;;;;;;;;2097467;28;19924;-46
2022/04/06 00:47:04;;;;;;;;;;;;;;;;;;2098205;28;19970;-44
2022/04/06 00:48:06;;;;;;;;;;;;;;;;;;2098293;28;19932;-44
2022/04/06 00:49:11;;;;;;;;;;;;;;;;;;2098071;28;19927;-44
2022/04/06 00:50:12;;;;;;;;;;;;;;;;;;2098249;28;20587;-44
2022/04/06 00:51:13;;;;;;;;;;;;;;;;;;2098140;28;19931;-44
2022/04/06 00:52:14;;;;;;;;;;;;;;;;;;2098091;28;19924;-45
2022/04/06 00:53:14;;;;;;;;;;;;;;;;;;2098148;28;19925;-44
2022/04/06 00:54:16;;;;;;;;;;;;;;;;;;2098134;28;19928;-44
2022/04/06 00:55:16;;;;;;;;;;;;;;;;;;2098081;28;19925;-44
2022/04/06 00:56:17;;;;;;;;;;;;;;;;;;2098359;28;19924;-44
2022/04/06 00:57:19;;;;;;;;;;;;;;;;;;2098156;28;20362;-44
2022/04/06 00:58:27;;;;;;;;;;;;;;;;;;2098165;28;19924;-44
2022/04/06 00:59:28;;;;;;;;;;;;;;;;;;2104664;28;19935;-51
2022/04/06 01:00:29;;;;;;;;;;;;;;;;;;2106481;28;19924;-49
2022/04/06 01:01:30;;;;;;;;;;;;;;;;;;2106424;28;19978;-52
2022/04/06 01:02:31;;;;;;;;;;;;;;;;;;2106617;28;19974;-50
2022/04/06 01:03:32;;;;;;;;;;;;;;;;;;2106588;28;20471;-44
2022/04/06 01:04:33;;;;;;;;;;;;;;;;;;2106694;28;19963;-52
2022/04/06 01:05:34;;;;;;;;;;;;;;;;;;2106423;28;19969;-50
2022/04/06 01:06:35;;;;;;;;;;;;;;;;;;2106289;28;20010;-50
2022/04/06 01:07:36;;;;;;;;;;;;;;;;;;2106451;28;19924;-49
2022/04/06 01:08:37;;;;;;;;;;;;;;;;;;2106604;28;19931;-51
2022/04/06 01:09:38;;;;;;;;;;;;;;;;;;2106573;28;20015;-50
2022/04/06 01:10:39;;;;;;;;;;;;;;;;;;2106480;28;19924;-50
2022/04/06 01:11:40;;;;;;;;;;;;;;;;;;2106343;28;19931;-51
2022/04/06 01:12:41;;;;;;;;;;;;;;;;;;2106466;28;19931;-50
2022/04/06 01:13:42;;;;;;;;;;;;;;;;;;2106589;28;20019;-53
2022/04/06 01:14:43;;;;;;;;;;;;;;;;;;2099437;28;19982;-50
2022/04/06 01:15:44;;;;;;;;;;;;;;;;;;2097954;28;20320;-53
2022/04/06 01:16:45;;;;;;;;;;;;;;;;;;2098186;28;19974;-49
2022/04/06 01:17:46;;;;;;;;;;;;;;;;;;2098189;28;19924;-50
2022/04/06 01:18:47;;;;;;;;;;;;;;;;;;2097876;28;19924;-51
2022/04/06 01:19:53;;;;;;;;;;;;;;;;;;2098335;28;20185;-54
2022/04/06 01:20:54;;;;;;;;;;;;;;;;;;2105925;28;19931;-51
2022/04/06 01:21:55;;;;;;;;;;;;;;;;;;2106451;28;20361;-51
2022/04/06 01:22:56;;;;;;;;;;;;;;;;;;2106340;28;19924;-54
2022/04/06 01:23:57;;;;;;;;;;;;;;;;;;2106535;28;19924;-49
2022/04/06 01:24:58;;;;;;;;;;;;;;;;;;2106430;28;19924;-51
2022/04/06 01:25:59;;;;;;;;;;;;;;;;;;2106168;28;19928;-45
2022/04/06 01:27:01;;;;;;;;;;;;;;;;;;2106113;28;20366;-45
2022/04/06 01:28:02;;;;;;;;;;;;;;;;;;2106372;28;20205;-45
2022/04/06 01:29:03;;;;;;;;;;;;;;;;;;2106508;28;20128;-44
2022/04/06 01:30:04;;;;;;;;;;;;;;;;;;2106332;28;19931;-44
2022/04/06 01:31:05;;;;;;;;;;;;;;;;;;2106440;28;19946;-44
2022/04/06 01:32:06;;;;;;;;;;;;;;;;;;2106229;28;19925;-44
2022/04/06 01:33:08;;;;;;;;;;;;;;;;;;2106257;28;19977;-44
2022/04/06 01:34:08;;;;;;;;;;;;;;;;;;2106429;28;19924;-44
2022/04/06 01:35:09;;;;;;;;;;;;;;;;;;2106416;28;20390;-44
2022/04/06 01:36:10;;;;;;;;;;;;;;;;;;2106349;28;19928;-44
2022/04/06 01:37:11;;;;;;;;;;;;;;;;;;2106374;28;20397;-44
2022/04/06 01:38:12;;;;;;;;;;;;;;;;;;2106237;28;19928;-45
2022/04/06 01:39:13;;;;;;;;;;;;;;;;;;2106341;28;19924;-44
2022/04/06 01:40:15;;;;;;;;;;;;;;;;;;2106416;28;19924;-51
2022/04/06 01:41:16;;;;;;;;;;;;;;;;;;2106200;28;19928;-53
2022/04/06 01:42:17;;;;;;;;;;;;;;;;;;2106245;28;20278;-54
2022/04/06 01:43:18;;;;;;;;;;;;;;;;;;2106138;28;19924;-51
2022/04/06 01:44:19;;;;;;;;;;;;;;;;;;2106364;28;19946;-51
2022/04/06 01:45:19;;;;;;;;;;;;;;;;;;2106367;28;19977;-51
2022/04/06 01:46:21;;;;;;;;;;;;;;;;;;2106198;28;20057;-51
2022/04/06 01:47:22;;;;;;;;;;;;;;;;;;2106275;28;19931;-52
2022/04/06 01:48:23;;;;;;;;;;;;;;;;;;2106182;28;20274;-52
2022/04/06 01:52:13;;;;;;;;;;;;;;;;;;2106093;28;19954;-50
2022/04/06 01:53:14;;;;;;;;;;;;;;;;;;2106355;28;20285;-45
2022/04/06 01:54:15;;;;;;;;;;;;;;;;;;2106318;28;19975;-44
2022/04/06 01:55:16;;;;;;;;;;;;;;;;;;2106022;28;19928;-45
2022/04/06 01:56:17;;;;;;;;;;;;;;;;;;2106193;28;19924;-44
2022/04/06 01:57:18;;;;;;;;;;;;;;;;;;2106264;28;19953;-44
2022/04/06 01:58:20;;;;;;;;;;;;;;;;;;2106318;28;19931;-45
2022/04/06 01:59:21;;;;;;;;;;;;;;;;;;2106181;28;19924;-43
2022/04/06 02:00:22;;;;;;;;;;;;;;;;;;2106145;28;19924;-43
2022/04/06 02:01:23;;;;;;;;;;;;;;;;;;2106089;28;19977;-43
2022/04/06 02:02:24;;;;;;;;;;;;;;;;;;2106050;28;19924;-43
2022/04/06 02:03:25;;;;;;;;;;;;;;;;;;2106310;28;19970;-52
2022/04/06 02:04:26;;;;;;;;;;;;;;;;;;2106278;28;19970;-53
2022/04/06 02:05:27;;;;;;;;;;;;;;;;;;2106016;28;20465;-50
2022/04/06 02:06:29;;;;;;;;;;;;;;;;;;2105958;28;20373;-52
2022/04/06 02:07:30;;;;;;;;;;;;;;;;;;2106052;28;19931;-50
2022/04/06 02:08:31;;;;;;;;;;;;;;;;;;2106031;28;19924;-50
2022/04/06 02:09:32;;;;;;;;;;;;;;;;;;2106272;28;20392;-44
2022/04/06 02:10:33;;;;;;;;;;;;;;;;;;2106006;28;19928;-44
2022/04/06 02:11:34;;;;;;;;;;;;;;;;;;2105983;28;19924;-44
2022/04/06 02:12:35;;;;;;;;;;;;;;;;;;2106433;28;19924;-52
2022/04/06 02:13:36;;;;;;;;;;;;;;;;;;2106061;28;19924;-51
2022/04/06 02:14:37;;;;;;;;;;;;;;;;;;2099843;28;19925;-50
2022/04/06 02:15:39;;;;;;;;;;;;;;;;;;2097645;28;20314;-50
2022/04/06 02:16:40;;;;;;;;;;;;;;;;;;2097890;28;19925;-44
2022/04/06 02:17:42;;;;;;;;;;;;;;;;;;2097683;28;19969;-43
2022/04/06 02:18:43;;;;;;;;;;;;;;;;;;2097616;28;19936;-44
2022/04/06 02:19:44;;;;;;;;;;;;;;;;;;2097775;28;19924;-44
2022/04/06 02:20:45;;;;;;;;;;;;;;;;;;2097759;28;19995;-44
2022/04/06 02:21:46;;;;;;;;;;;;;;;;;;2097544;28;20078;-44
2022/04/06 02:22:47;;;;;;;;;;;;;;;;;;2097947;28;19924;-44
2022/04/06 02:23:48;;;;;;;;;;;;;;;;;;2097651;28;19924;-45
2022/04/06 02:24:49;;;;;;;;;;;;;;;;;;2097683;28;20400;-43
2022/04/06 02:25:50;;;;;;;;;;;;;;;;;;2097654;28;19931;-44
2022/04/06 02:26:51;;;;;;;;;;;;;;;;;;2097509;28;19924;-44
2022/04/06 02:27:52;;;;;;;;;;;;;;;;;;2097709;28;19935;-44
2022/04/06 02:28:53;;;;;;;;;;;;;;;;;;2097773;28;19947;-44
2022/04/06 02:29:54;;;;;;;;;;;;;;;;;;2097798;28;19925;-44
2022/04/06 02:30:55;;;;;;;;;;;;;;;;;;2097812;28;20378;-46
2022/04/06 02:31:56;;;;;;;;;;;;;;;;;;2097522;28;20019;-43
2022/04/06 02:32:57;;;;;;;;;;;;;;;;;;2097829;28;20069;-44
2022/04/06 02:33:58;;;;;;;;;;;;;;;;;;2097752;28;19993;-43
2022/04/06 02:34:59;;;;;;;;;;;;;;;;;;2097708;28;19924;-44
2022/04/06 02:36:00;;;;;;;;;;;;;;;;;;2097462;28;19931;-44
2022/04/06 02:37:01;;;;;;;;;;;;;;;;;;2097519;28;19933;-44
2022/04/06 02:38:02;;;;;;;;;;;;;;;;;;2097591;28;20255;-44
2022/04/06 02:39:03;;;;;;;;;;;;;;;;;;2097488;28;20286;-44
2022/04/06 02:40:04;;;;;;;;;;;;;;;;;;2097686;28;19974;-44
2022/04/06 02:41:05;;;;;;;;;;;;;;;;;;2097621;28;19955;-44
2022/04/06 02:42:06;;;;;;;;;;;;;;;;;;2097490;28;20289;-44
2022/04/06 02:43:07;;;;;;;;;;;;;;;;;;2097669;28;19924;-45
2022/04/06 02:44:08;;;;;;;;;;;;;;;;;;2097471;28;20389;-45
2022/04/06 02:45:09;;;;;;;;;;;;;;;;;;2097838;28;19925;-53
2022/04/06 02:46:10;;;;;;;;;;;;;;;;;;2097671;28;20463;-45
2022/04/06 02:47:12;;;;;;;;;;;;;;;;;;2097603;28;19924;-44
2022/04/06 02:48:13;;;;;;;;;;;;;;;;;;2097538;28;19925;-45
2022/04/06 02:49:15;;;;;;;;;;;;;;;;;;2097611;28;19947;-45
2022/04/06 02:50:15;;;;;;;;;;;;;;;;;;2097591;28;20377;-51
2022/04/06 02:51:17;;;;;;;;;;;;;;;;;;2097358;28;19925;-52
2022/04/06 02:52:18;;;;;;;;;;;;;;;;;;2104297;28;19925;-49
2022/04/06 02:53:19;;;;;;;;;;;;;;;;;;2105973;28;20019;-44
2022/04/06 02:54:20;;;;;;;;;;;;;;;;;;2106002;28;19924;-45
2022/04/06 02:55:21;;;;;;;;;;;;;;;;;;2105884;28;19978;-45
2022/04/06 02:56:21;;;;;;;;;;;;;;;;;;2105780;28;20373;-45
2022/04/06 02:57:23;;;;;;;;;;;;;;;;;;2105891;28;20007;-46
2022/04/06 02:58:23;;;;;;;;;;;;;;;;;;2105983;28;19928;-44
2022/04/06 02:59:25;;;;;;;;;;;;;;;;;;2105840;28;19928;-44
2022/04/06 03:00:26;;;;;;;;;;;;;;;;;;2105852;28;19935;-44
2022/04/06 03:01:27;;;;;;;;;;;;;;;;;;2105766;28;20297;-44
2022/04/06 03:02:28;;;;;;;;;;;;;;;;;;2105950;28;20009;-44
2022/04/06 03:03:29;;;;;;;;;;;;;;;;;;2105845;28;20339;-44
2022/04/06 03:04:30;;;;;;;;;;;;;;;;;;2106172;28;20381;-51
2022/04/06 03:05:31;;;;;;;;;;;;;;;;;;2105811;28;19985;-52
2022/04/06 03:06:32;;;;;;;;;;;;;;;;;;2105623;28;20431;-51
2022/04/06 03:07:33;;;;;;;;;;;;;;;;;;2105971;28;19930;-52
2022/04/06 03:08:34;;;;;;;;;;;;;;;;;;2105941;28;19935;-50
2022/04/06 03:09:35;;;;;;;;;;;;;;;;;;2106953;28;19924;-51
2022/04/06 03:10:36;;;;;;;;;;;;;;;;;;2107657;28;19924;-51
2022/04/06 03:11:37;;;;;;;;;;;;;;;;;;2107041;28;19924;-51
2022/04/06 03:12:38;;;;;;;;;;;;;;;;;;2107324;28;19970;-50
2022/04/06 03:13:39;;;;;;;;;;;;;;;;;;2107167;28;19932;-50
2022/04/06 03:14:41;;;;;;;;;;;;;;;;;;2100745;28;20409;-51
2022/04/06 03:15:42;;;;;;;;;;;;;;;;;;2099144;28;19931;-44
2022/04/06 03:16:43;;;;;;;;;;;;;;;;;;2099136;28;20008;-44
2022/04/06 03:17:44;;;;;;;;;;;;;;;;;;2098711;28;19966;-44
2022/04/06 03:18:45;;;;;;;;;;;;;;;;;;2098826;28;20045;-45
2022/04/06 03:19:46;;;;;;;;;;;;;;;;;;2098775;28;19962;-44
2022/04/06 03:20:47;;;;;;;;;;;;;;;;;;2098899;28;20038;-44
2022/04/06 03:21:48;;;;;;;;;;;;;;;;;;2099075;28;20596;-51
2022/04/06 03:22:49;;;;;;;;;;;;;;;;;;2098876;28;19947;-50
2022/04/06 03:23:50;;;;;;;;;;;;;;;;;;2098845;28;19925;-52
2022/04/06 03:24:51;;;;;;;;;;;;;;;;;;2098717;28;19924;-52
2022/04/06 03:25:52;;;;;;;;;;;;;;;;;;2099112;28;19929;-50
2022/04/06 03:26:53;;;;;;;;;;;;;;;;;;2098551;28;20042;-53
2022/04/06 03:27:54;;;;;;;;;;;;;;;;;;2099094;28;20039;-45
2022/04/06 03:28:55;;;;;;;;;;;;;;;;;;2098971;28;19932;-52
2022/04/06 03:29:56;;;;;;;;;;;;;;;;;;2098817;28;20293;-52
2022/04/06 03:30:57;;;;;;;;;;;;;;;;;;2098924;28;19966;-51
2022/04/06 03:31:58;;;;;;;;;;;;;;;;;;2098909;28;19994;-50
2022/04/06 03:32:59;;;;;;;;;;;;;;;;;;2098736;28;19947;-52
2022/04/06 03:34:01;;;;;;;;;;;;;;;;;;2099029;28;19924;-50
2022/04/06 03:35:01;;;;;;;;;;;;;;;;;;2098760;28;19924;-50
2022/04/06 03:36:03;;;;;;;;;;;;;;;;;;2098986;28;19972;-44
2022/04/06 03:37:05;;;;;;;;;;;;;;;;;;2098578;28;19930;-44
2022/04/06 03:38:05;;;;;;;;;;;;;;;;;;2098748;28;19924;-44
2022/04/06 03:39:07;;;;;;;;;;;;;;;;;;2098783;28;19925;-46
2022/04/06 03:40:08;;;;;;;;;;;;;;;;;;2098927;28;20067;-44
2022/04/06 03:41:10;;;;;;;;;;;;;;;;;;2099163;28;19931;-44
2022/04/06 03:42:11;;;;;;;;;;;;;;;;;;2099166;28;19924;-52
2022/04/06 03:43:13;;;;;;;;;;;;;;;;;;2098689;28;19958;-51
2022/04/06 03:44:14;;;;;;;;;;;;;;;;;;2098792;28;20355;-47
2022/04/06 03:45:15;;;;;;;;;;;;;;;;;;2098835;28;19954;-44
2022/04/06 03:46:16;;;;;;;;;;;;;;;;;;2098638;28;19929;-44
2022/04/06 03:47:18;;;;;;;;;;;;;;;;;;2098844;28;20016;-51
2022/04/06 03:48:22;;;;;;;;;;;;;;;;;;2103361;28;19931;-51
2022/04/06 03:49:23;;;;;;;;;;;;;;;;;;2107150;28;19974;-51
2022/04/06 03:50:24;;;;;;;;;;;;;;;;;;2106717;28;19931;-50
2022/04/06 03:51:25;;;;;;;;;;;;;;;;;;2106831;28;19967;-44
2022/04/06 03:52:25;;;;;;;;;;;;;;;;;;2107117;28;19924;-44
2022/04/06 03:53:27;;;;;;;;;;;;;;;;;;2106924;28;20038;-44
2022/04/06 03:54:28;;;;;;;;;;;;;;;;;;2106941;28;20296;-44
2022/04/06 03:55:29;;;;;;;;;;;;;;;;;;2106938;28;19924;-44
2022/04/06 03:56:30;;;;;;;;;;;;;;;;;;2107270;28;20335;-45
2022/04/06 03:57:31;;;;;;;;;;;;;;;;;;2107058;28;19973;-45
2022/04/06 03:58:32;;;;;;;;;;;;;;;;;;2106962;28;19924;-44
2022/04/06 03:59:33;;;;;;;;;;;;;;;;;;2107128;28;19931;-44
2022/04/06 04:00:34;;;;;;;;;;;;;;;;;;2107241;28;19931;-45
2022/04/06 04:01:36;;;;;;;;;;;;;;;;;;2106852;28;19931;-44
2022/04/06 04:02:37;;;;;;;;;;;;;;;;;;2106865;28;19931;-44
2022/04/06 04:03:39;;;;;;;;;;;;;;;;;;2106828;28;19924;-44
2022/04/06 04:04:39;;;;;;;;;;;;;;;;;;2106977;28;19931;-44
2022/04/06 04:05:41;;;;;;;;;;;;;;;;;;2106914;28;20022;-43
2022/04/06 04:06:41;;;;;;;;;;;;;;;;;;2106944;28;19924;-49
2022/04/06 04:07:43;;;;;;;;;;;;;;;;;;2106960;28;20416;-49
2022/04/06 04:08:43;;;;;;;;;;;;;;;;;;2106840;28;19924;-52
2022/04/06 04:09:45;;;;;;;;;;;;;;;;;;2106759;28;19930;-50
2022/04/06 04:10:45;;;;;;;;;;;;;;;;;;2107191;28;19969;-50
2022/04/06 04:11:47;;;;;;;;;;;;;;;;;;2106967;28;19974;-43
2022/04/06 04:12:48;;;;;;;;;;;;;;;;;;2107155;28;20362;-45
2022/04/06 04:13:50;;;;;;;;;;;;;;;;;;2106335;28;20368;-45
2022/04/06 04:14:51;;;;;;;;;;;;;;;;;;2106323;28;19924;-50
2022/04/06 04:15:52;;;;;;;;;;;;;;;;;;2106530;28;19955;-50
2022/04/06 04:16:53;;;;;;;;;;;;;;;;;;2106718;28;20011;-53
2022/04/06 04:17:54;;;;;;;;;;;;;;;;;;2106861;28;19924;-53
2022/04/06 04:18:55;;;;;;;;;;;;;;;;;;2106106;28;19931;-52
2022/04/06 04:19:56;;;;;;;;;;;;;;;;;;2106885;28;19947;-50
2022/04/06 04:22:13;;;;;;;;;;;;;;;;;;2105906;28;19977;-50
2022/04/06 04:23:14;;;;;;;;;;;;;;;;;;2106680;28;19924;-49
2022/04/06 04:24:15;;;;;;;;;;;;;;;;;;2106778;28;19924;-49
2022/04/06 04:25:16;;;;;;;;;;;;;;;;;;2106835;28;19951;-44
2022/04/06 04:26:17;;;;;;;;;;;;;;;;;;2106935;28;20576;-44
2022/04/06 04:27:18;;;;;;;;;;;;;;;;;;2106724;28;19939;-45
2022/04/06 04:28:19;;;;;;;;;;;;;;;;;;2106665;28;20376;-44
2022/04/06 04:29:20;;;;;;;;;;;;;;;;;;2106820;28;19960;-45
2022/04/06 04:30:22;;;;;;;;;;;;;;;;;;2107103;28;19931;-49
2022/04/06 04:31:22;;;;;;;;;;;;;;;;;;2106695;28;19928;-50
2022/04/06 04:32:24;;;;;;;;;;;;;;;;;;2106923;28;19931;-45
2022/04/06 04:33:25;;;;;;;;;;;;;;;;;;2107089;28;19924;-49
2022/04/06 04:34:26;;;;;;;;;;;;;;;;;;2106981;28;20363;-44
2022/04/06 04:35:27;;;;;;;;;;;;;;;;;;2106682;28;20308;-44
2022/04/06 04:36:28;;;;;;;;;;;;;;;;;;2106662;28;19931;-44
2022/04/06 04:37:29;;;;;;;;;;;;;;;;;;2106824;28;19924;-46
2022/04/06 04:38:30;;;;;;;;;;;;;;;;;;2106758;28;20418;-44
2022/04/06 04:39:31;;;;;;;;;;;;;;;;;;2106789;28;19924;-44
2022/04/06 04:40:32;;;;;;;;;;;;;;;;;;2106818;28;19924;-45
2022/04/06 04:41:33;;;;;;;;;;;;;;;;;;2106853;28;19928;-49
2022/04/06 04:42:34;;;;;;;;;;;;;;;;;;2106712;28;20369;-53
2022/04/06 04:43:35;;;;;;;;;;;;;;;;;;2107017;28;19924;-44
2022/04/06 04:44:36;;;;;;;;;;;;;;;;;;2106459;28;20346;-45
2022/04/06 04:45:37;;;;;;;;;;;;;;;;;;2106491;28;19924;-45
2022/04/06 04:46:38;;;;;;;;;;;;;;;;;;2106668;28;19924;-49
2022/04/06 04:47:40;;;;;;;;;;;;;;;;;;2106663;28;19924;-50
2022/04/06 04:48:41;;;;;;;;;;;;;;;;;;2106661;28;19931;-50
2022/04/06 04:49:42;;;;;;;;;;;;;;;;;;2106840;28;19963;-45
2022/04/06 04:50:43;;;;;;;;;;;;;;;;;;2106715;28;19932;-44
2022/04/06 04:51:44;;;;;;;;;;;;;;;;;;2106845;28;19924;-44
2022/04/06 04:52:45;;;;;;;;;;;;;;;;;;2106482;28;20359;-44
2022/04/06 04:53:46;;;;;;;;;;;;;;;;;;2106542;28;19924;-44
2022/04/06 04:54:48;;;;;;;;;;;;;;;;;;2106517;28;19924;-44
2022/04/06 04:55:49;;;;;;;;;;;;;;;;;;2106406;28;19952;-43
2022/04/06 04:56:50;;;;;;;;;;;;;;;;;;2106737;28;19930;-54
2022/04/06 04:57:51;;;;;;;;;;;;;;;;;;2106701;28;19931;-50
2022/04/06 04:58:52;;;;;;;;;;;;;;;;;;2106388;28;19928;-50
2022/04/06 04:59:53;;;;;;;;;;;;;;;;;;2106639;28;19928;-50
2022/04/06 05:00:54;;;;;;;;;;;;;;;;;;2106449;28;19924;-52
2022/04/06 05:01:55;;;;;;;;;;;;;;;;;;2106351;28;19924;-49
2022/04/06 05:02:56;;;;;;;;;;;;;;;;;;2106865;28;19924;-44
2022/04/06 05:03:57;;;;;;;;;;;;;;;;;;2106443;28;20301;-45
2022/04/06 05:04:58;;;;;;;;;;;;;;;;;;2106848;28;19959;-45
2022/04/06 05:05:59;;;;;;;;;;;;;;;;;;2106723;28;19931;-44
2022/04/06 05:07:00;;;;;;;;;;;;;;;;;;2106762;28;19924;-45
2022/04/06 05:08:01;;;;;;;;;;;;;;;;;;2106486;28;19924;-44
2022/04/06 05:09:03;;;;;;;;;;;;;;;;;;2106462;28;20266;-45
2022/04/06 05:10:03;;;;;;;;;;;;;;;;;;2106677;28;20408;-50
2022/04/06 05:11:04;;;;;;;;;;;;;;;;;;2106448;28;19954;-51
2022/04/06 05:12:05;;;;;;;;;;;;;;;;;;2106369;28;20026;-52
2022/04/06 05:13:07;;;;;;;;;;;;;;;;;;2106624;28;20377;-50
2022/04/06 05:14:09;;;;;;;;;;;;;;;;;;2104259;28;19924;-54
2022/04/06 05:15:10;;;;;;;;;;;;;;;;;;2097973;28;19948;-50
2022/04/06 05:16:11;;;;;;;;;;;;;;;;;;2097883;28;20392;-50
2022/04/06 05:17:12;;;;;;;;;;;;;;;;;;2097894;28;19972;-50
2022/04/06 05:18:14;;;;;;;;;;;;;;;;;;2098032;28;20390;-48
2022/04/06 05:19:14;;;;;;;;;;;;;;;;;;2098195;28;19925;-49
2022/04/06 05:20:15;;;;;;;;;;;;;;;;;;2098166;28;20008;-50
2022/04/06 05:21:16;;;;;;;;;;;;;;;;;;2097971;28;19975;-50
2022/04/06 05:22:18;;;;;;;;;;;;;;;;;;2098045;28;20471;-50
2022/04/06 05:23:18;;;;;;;;;;;;;;;;;;2098166;28;19924;-44
2022/04/06 05:24:20;;;;;;;;;;;;;;;;;;2097983;28;19924;-43
2022/04/06 05:25:20;;;;;;;;;;;;;;;;;;2097959;28;19924;-44
2022/04/06 05:26:22;;;;;;;;;;;;;;;;;;2097815;28;20050;-44
2022/04/06 05:27:22;;;;;;;;;;;;;;;;;;2098231;28;19931;-43
2022/04/06 05:28:23;;;;;;;;;;;;;;;;;;2097942;28;20305;-43
2022/04/06 05:29:24;;;;;;;;;;;;;;;;;;2098116;28;19924;-43
2022/04/06 05:30:25;;;;;;;;;;;;;;;;;;2097920;28;19971;-44
2022/04/06 05:31:27;;;;;;;;;;;;;;;;;;2097866;28;19932;-44
2022/04/06 05:32:28;;;;;;;;;;;;;;;;;;2097809;28;19928;-50
2022/04/06 05:33:29;;;;;;;;;;;;;;;;;;2098327;28;19978;-44
2022/04/06 05:34:30;;;;;;;;;;;;;;;;;;2104715;28;19977;-44
2022/04/06 05:35:31;;;;;;;;;;;;;;;;;;2106830;28;20422;-43
2022/04/06 05:36:32;;;;;;;;;;;;;;;;;;2106129;28;20338;-44
2022/04/06 05:37:33;;;;;;;;;;;;;;;;;;2106336;28;19935;-44
2022/04/06 05:38:34;;;;;;;;;;;;;;;;;;2106278;28;19935;-44
2022/04/06 05:39:35;;;;;;;;;;;;;;;;;;2106218;28;19972;-43
2022/04/06 05:40:36;;;;;;;;;;;;;;;;;;2105968;28;20294;-43
2022/04/06 05:41:37;;;;;;;;;;;;;;;;;;2106126;28;19931;-43
2022/04/06 05:42:38;;;;;;;;;;;;;;;;;;2106802;28;19924;-48
2022/04/06 05:43:39;;;;;;;;;;;;;;;;;;2106235;28;20242;-49
2022/04/06 05:44:40;;;;;;;;;;;;;;;;;;2106578;28;19924;-50
2022/04/06 05:45:41;;;;;;;;;;;;;;;;;;2106754;28;19978;-48
2022/04/06 05:46:42;;;;;;;;;;;;;;;;;;2106567;28;19924;-43
2022/04/06 05:47:43;;;;;;;;;;;;;;;;;;2106276;28;19935;-44
2022/04/06 05:48:45;;;;;;;;;;;;;;;;;;2106142;28;20369;-44
2022/04/06 05:49:45;;;;;;;;;;;;;;;;;;2106224;28;20377;-44
2022/04/06 05:50:47;;;;;;;;;;;;;;;;;;2106082;28;20022;-44
2022/04/06 05:51:49;;;;;;;;;;;;;;;;;;2106090;28;19924;-44
2022/04/06 05:52:50;;;;;;;;;;;;;;;;;;2106502;28;20301;-43
2022/04/06 05:53:51;;;;;;;;;;;;;;;;;;2106447;28;19977;-49
2022/04/06 05:54:52;;;;;;;;;;;;;;;;;;2106233;28;20342;-49
2022/04/06 05:55:53;;;;;;;;;;;;;;;;;;2105731;28;19947;-43
2022/04/06 05:56:54;;;;;;;;;;;;;;;;;;2106080;28;19924;-44
2022/04/06 05:57:55;;;;;;;;;;;;;;;;;;2106111;28;19932;-43
2022/04/06 05:58:56;;;;;;;;;;;;;;;;;;2106180;28;20418;-44
2022/04/06 05:59:57;;;;;;;;;;;;;;;;;;2106314;28;19932;-43
2022/04/06 06:00:59;;;;;;;;;;;;;;;;;;2106328;28;20318;-48
2022/04/06 06:02:00;;;;;;;;;;;;;;;;;;2106080;28;19924;-48
2022/04/06 06:03:01;;;;;;;;;;;;;;;;;;2106278;28;19977;-49
2022/04/06 06:04:02;;;;;;;;;;;;;;;;;;2106221;28;20284;-48
2022/04/06 06:05:03;;;;;;;;;;;;;;;;;;2106639;28;19932;-43
2022/04/06 06:06:04;;;;;;;;;;;;;;;;;;2105942;28;19924;-43
2022/04/06 06:07:05;;;;;;;;;;;;;;;;;;2106165;28;19951;-44
2022/04/06 06:08:07;;;;;;;;;;;;;;;;;;2106355;28;19931;-44
2022/04/06 06:09:08;;;;;;;;;;;;;;;;;;2106172;28;19928;-43
2022/04/06 06:10:09;;;;;;;;;;;;;;;;;;2106621;28;19924;-48
2022/04/06 06:11:10;;;;;;;;;;;;;;;;;;2106128;28;19934;-49
2022/04/06 06:12:11;;;;;;;;;;;;;;;;;;2106688;28;19978;-44
2022/04/06 06:13:12;;;;;;;;;;;;;;;;;;2106057;28;19924;-43
2022/04/06 06:14:13;;;;;;;;;;;;;;;;;;2103655;28;20425;-43
2022/04/06 06:15:15;;;;;;;;;;;;;;;;;;2097692;28;20364;-43
2022/04/06 06:16:16;;;;;;;;;;;;;;;;;;2097754;28;19928;-44
2022/04/06 06:17:17;;;;;;;;;;;;;;;;;;2097705;28;19931;-44
2022/04/06 06:18:18;;;;;;;;;;;;;;;;;;2097967;28;19924;-52
2022/04/06 06:19:19;;;;;;;;;;;;;;;;;;2097681;28;19928;-50
2022/04/06 06:20:20;;;;;;;;;;;;;;;;;;2097917;28;19924;-50
2022/04/06 06:21:31;;;;;;;;;;;;;;;;;;2097705;28;19924;-49
2022/04/06 06:22:32;;;;;;;;;;;;;;;;;;2097726;28;19970;-49
2022/04/06 06:23:33;;;;;;;;;;;;;;;;;;2104629;28;19928;-50
2022/04/06 06:24:34;;;;;;;;;;;;;;;;;;2106280;28;20262;-44
2022/04/06 06:25:37;;;;;;;;;;;;;;;;;;2106278;28;19950;-49
2022/04/06 06:26:38;;;;;;;;;;;;;;;;;;2106062;28;19924;-51
2022/04/06 06:27:39;;;;;;;;;;;;;;;;;;2106005;28;19955;-49
2022/04/06 06:28:40;;;;;;;;;;;;;;;;;;2106053;28;19925;-49
2022/04/06 06:29:41;;;;;;;;;;;;;;;;;;2106334;28;19924;-50
2022/04/06 06:30:42;;;;;;;;;;;;;;;;;;2106370;28;19924;-52
2022/04/06 06:31:43;;;;;;;;;;;;;;;;;;2106445;28;19971;-43
2022/04/06 06:32:45;;;;;;;;;;;;;;;;;;2106249;28;19928;-52
2022/04/06 06:33:47;;;;;;;;;;;;;;;;;;2106137;28;19973;-43
2022/04/06 06:34:48;;;;;;;;;;;;;;;;;;2105993;28;20216;-43
2022/04/06 06:35:48;;;;;;;;;;;;;;;;;;2105806;28;20424;-43
2022/04/06 06:36:50;;;;;;;;;;;;;;;;;;2105680;28;20154;-43
2022/04/06 06:37:51;;;;;;;;;;;;;;;;;;2106103;28;19932;-43
2022/04/06 06:38:51;;;;;;;;;;;;;;;;;;2106308;28;20419;-43
2022/04/06 06:39:54;;;;;;;;;;;;;;;;;;2106460;28;19932;-43
2022/04/06 06:40:55;;;;;;;;;;;;;;;;;;2106249;28;19924;-49
2022/04/06 06:41:56;;;;;;;;;;;;;;;;;;2106203;28;19924;-43
2022/04/06 06:42:57;;;;;;;;;;;;;;;;;;2105833;28;19924;-43
2022/04/06 06:43:58;;;;;;;;;;;;;;;;;;2106226;28;19924;-43
2022/04/06 06:44:59;;;;;;;;;;;;;;;;;;2107442;28;19924;-43
2022/04/06 06:46:00;;;;;;;;;;;;;;;;;;2107665;28;19924;-43
2022/04/06 06:47:01;;;;;;;;;;;;;;;;;;2107355;28;19967;-44
2022/04/06 06:48:03;;;;;;;;;;;;;;;;;;2107391;28;20402;-45
2022/04/06 06:49:03;;;;;;;;;;;;;;;;;;2107282;28;20389;-43
2022/04/06 06:50:05;;;;;;;;;;;;;;;;;;2107374;28;19967;-43
2022/04/06 06:51:06;;;;;;;;;;;;;;;;;;2107191;28;19931;-44
2022/04/06 06:52:07;;;;;;;;;;;;;;;;;;2107382;28;19928;-44
2022/04/06 06:53:08;;;;;;;;;;;;;;;;;;2107331;28;20412;-44
2022/04/06 06:54:09;;;;;;;;;;;;;;;;;;2107315;28;20316;-44
2022/04/06 06:55:10;;;;;;;;;;;;;;;;;;2107480;28;19924;-44
2022/04/06 06:56:11;;;;;;;;;;;;;;;;;;2107164;28;19935;-42
2022/04/06 06:57:12;;;;;;;;;;;;;;;;;;2107377;28;20351;-44
2022/04/06 06:58:13;;;;;;;;;;;;;;;;;;2107287;28;19950;-42
2022/04/06 06:59:14;;;;;;;;;;;;;;;;;;2107562;28;20380;-49
2022/04/06 07:00:15;;;;;;;;;;;;;;;;;;2107272;28;19931;-50
2022/04/06 07:01:16;;;;;;;;;;;;;;;;;;2107540;28;19928;-51
2022/04/06 07:02:17;;;;;;;;;;;;;;;;;;2107762;28;19924;-44
2022/04/06 07:03:18;;;;;;;;;;;;;;;;;;2107175;28;19954;-43